createdAt,value
2023-02-06T00:01:29.537Z,4.66
2023-02-06T00:03:57.747Z,4.67
2023-02-06T00:06:26.007Z,4.66
2023-02-06T00:08:54.586Z,4.67
2023-02-06T00:11:24.519Z,4.68
2023-02-06T00:13:53.839Z,4.68
2023-02-06T00:16:24.352Z,4.72
2023-02-06T00:18:54.044Z,4.75
2023-02-06T00:21:24.707Z,4.79
2023-02-06T00:23:54.138Z,4.83
2023-02-06T00:26:24.534Z,4.88
2023-02-06T00:28:53.129Z,4.90
2023-02-06T00:31:21.439Z,4.93
2023-02-06T00:33:50.066Z,4.97
2023-02-06T00:36:18.318Z,5.00
2023-02-06T00:38:46.446Z,5.04
2023-02-06T00:41:14.741Z,5.08
2023-02-06T00:43:44.683Z,5.11
2023-02-06T00:46:13.331Z,5.15
2023-02-06T00:48:42.232Z,5.17
2023-02-06T00:51:10.296Z,5.22
2023-02-06T00:53:39.816Z,5.25
2023-02-06T00:56:08.396Z,5.27
2023-02-06T00:58:36.710Z,5.30
2023-02-06T01:01:06.377Z,5.30
2023-02-06T01:03:34.678Z,5.32
2023-02-06T01:06:03.210Z,5.32
2023-02-06T01:08:31.393Z,5.34
2023-02-06T01:10:59.581Z,5.35
2023-02-06T01:13:27.785Z,5.35
2023-02-06T01:15:56.040Z,5.39
2023-02-06T01:18:25.587Z,5.39
2023-02-06T01:20:53.713Z,5.39
2023-02-06T01:23:21.880Z,5.38
2023-02-06T01:25:50.105Z,5.40
2023-02-06T01:28:18.343Z,5.39
2023-02-06T01:30:46.600Z,5.38
2023-02-06T01:33:14.883Z,5.36
2023-02-06T01:35:44.513Z,5.35
2023-02-06T01:38:12.715Z,5.34
2023-02-06T01:40:40.895Z,5.33
2023-02-06T01:43:19.048Z,5.33
2023-02-06T01:45:48.490Z,5.34
2023-02-06T01:48:20.386Z,5.35
2023-02-06T01:50:55.426Z,5.37
2023-02-06T01:53:25.543Z,5.39
2023-02-06T01:55:55.756Z,5.42
2023-02-06T01:58:29.167Z,5.43
2023-02-06T02:01:00.498Z,5.47
2023-02-06T02:03:30.031Z,5.50
2023-02-06T02:06:03.576Z,5.52
2023-02-06T02:08:37.448Z,5.53
2023-02-06T02:11:08.134Z,5.52
2023-02-06T02:13:38.455Z,5.54
2023-02-06T02:16:16.338Z,5.56
2023-02-06T02:19:03.959Z,5.57
2023-02-06T02:22:09.058Z,5.58
2023-02-06T02:25:05.033Z,5.56
2023-02-06T02:27:47.522Z,5.56
2023-02-06T02:30:43.498Z,5.58
2023-02-06T02:33:35.128Z,5.57
2023-02-06T02:36:12.415Z,5.57
2023-02-06T02:38:52.395Z,5.58
2023-02-06T02:41:26.678Z,5.58
2023-02-06T02:44:04.596Z,5.57
2023-02-06T02:46:36.339Z,5.59
2023-02-06T02:49:07.096Z,5.58
2023-02-06T02:51:38.950Z,5.59
2023-02-06T02:54:07.073Z,5.57
2023-02-06T02:56:35.442Z,5.56
2023-02-06T02:59:08.819Z,5.55
2023-02-06T03:01:41.998Z,5.50
2023-02-06T03:04:14.300Z,5.48
2023-02-06T03:07:01.088Z,5.43
2023-02-06T03:09:40.748Z,5.38
2023-02-06T03:12:18.976Z,5.35
2023-02-06T03:14:52.607Z,5.34
2023-02-06T03:17:29.587Z,5.31
2023-02-06T03:20:01.154Z,5.29
2023-02-06T03:22:32.009Z,5.24
2023-02-06T03:25:01.707Z,5.23
2023-02-06T03:27:31.361Z,5.19
2023-02-06T03:30:02.340Z,5.14
2023-02-06T03:32:33.629Z,5.11
2023-02-06T03:35:06.556Z,5.07
2023-02-06T03:37:38.295Z,5.03
2023-02-06T03:40:09.124Z,4.96
2023-02-06T03:42:42.551Z,4.91
2023-02-06T03:45:18.453Z,4.86
2023-02-06T03:47:49.178Z,4.83
2023-02-06T03:50:18.745Z,4.78
2023-02-06T03:52:51.990Z,4.75
2023-02-06T03:55:23.292Z,4.72
2023-02-06T03:57:55.394Z,4.68
2023-02-06T04:00:24.216Z,4.65
2023-02-06T04:02:54.868Z,4.62
2023-02-06T04:05:23.109Z,4.60
2023-02-06T04:07:54.149Z,4.57
2023-02-06T04:10:22.269Z,4.56
2023-02-06T04:12:50.427Z,4.55
2023-02-06T04:15:18.910Z,4.55
2023-02-06T04:17:59.203Z,4.53
2023-02-06T04:20:28.734Z,4.50
2023-02-06T04:22:58.510Z,4.47
2023-02-06T04:25:27.048Z,4.46
2023-02-06T04:27:55.356Z,4.47
2023-02-06T04:30:23.559Z,4.45
2023-02-06T04:32:51.796Z,4.42
2023-02-06T04:35:20.455Z,4.40
2023-02-06T04:37:48.586Z,4.38
2023-02-06T04:40:18.465Z,4.35
2023-02-06T04:42:46.689Z,4.35
2023-02-06T04:45:15.339Z,4.32
2023-02-06T04:47:43.722Z,4.31
2023-02-06T04:50:12.166Z,4.30
2023-02-06T04:52:40.322Z,4.28
2023-02-06T04:55:09.122Z,4.27
2023-02-06T04:57:39.373Z,4.30
2023-02-06T05:00:09.398Z,4.30
2023-02-06T05:02:39.986Z,4.32
2023-02-06T05:05:10.332Z,4.32
2023-02-06T05:07:38.514Z,4.33
2023-02-06T05:10:09.078Z,4.32
2023-02-06T05:12:38.919Z,4.34
2023-02-06T05:15:08.320Z,4.34
2023-02-06T05:17:37.227Z,4.33
2023-02-06T05:20:06.312Z,4.31
2023-02-06T05:22:34.622Z,4.31
2023-02-06T05:25:03.210Z,4.28
2023-02-06T05:27:31.456Z,4.24
2023-02-06T05:30:01.005Z,4.22
2023-02-06T05:32:29.268Z,4.20
2023-02-06T05:34:57.449Z,4.16
2023-02-06T05:37:27.892Z,4.16
2023-02-06T05:39:56.025Z,4.09
2023-02-06T05:42:24.568Z,4.07
2023-02-06T05:44:52.768Z,4.04
2023-02-06T05:47:22.335Z,3.99
2023-02-06T05:49:50.705Z,3.97
2023-02-06T05:52:19.492Z,3.98
2023-02-06T05:54:47.600Z,3.98
2023-02-06T05:57:15.906Z,3.95
2023-02-06T05:59:44.088Z,3.94
2023-02-06T06:02:12.258Z,3.94
2023-02-06T06:04:41.995Z,3.92
2023-02-06T06:07:10.227Z,3.91
2023-02-06T06:09:38.862Z,3.87
2023-02-06T06:12:07.458Z,3.84
2023-02-06T06:14:35.587Z,3.81
2023-02-06T06:17:03.855Z,3.80
2023-02-06T06:19:32.038Z,3.81
2023-02-06T06:22:01.684Z,3.79
2023-02-06T06:24:29.856Z,3.81
2023-02-06T06:26:59.512Z,3.76
2023-02-06T06:29:28.328Z,3.75
2023-02-06T06:31:56.967Z,3.73
2023-02-06T06:34:25.137Z,3.73
2023-02-06T06:36:53.332Z,3.74
2023-02-06T06:39:23.033Z,3.74
2023-02-06T06:41:51.225Z,3.74
2023-02-06T06:44:19.604Z,3.73
2023-02-06T06:46:47.741Z,3.72
2023-02-06T06:49:15.976Z,3.70
2023-02-06T06:51:44.446Z,3.68
2023-02-06T06:54:12.716Z,3.67
2023-02-06T06:56:42.822Z,3.66
2023-02-06T06:59:11.360Z,3.65
2023-02-06T07:01:39.620Z,3.67
2023-02-06T07:04:07.860Z,3.71
2023-02-06T07:06:36.029Z,3.73
2023-02-06T07:09:04.162Z,3.76
2023-02-06T07:11:32.322Z,3.78
2023-02-06T07:14:01.943Z,3.82
2023-02-06T07:16:30.336Z,3.88
2023-02-06T07:18:58.601Z,3.93
2023-02-06T07:21:26.782Z,3.97
2023-02-06T07:23:55.014Z,4.00
2023-02-06T07:26:23.164Z,4.01
2023-02-06T07:28:52.835Z,4.03
2023-02-06T07:31:22.815Z,4.04
2023-02-06T07:33:51.083Z,4.07
2023-02-06T07:36:19.675Z,4.11
2023-02-06T07:38:47.936Z,4.15
2023-02-06T07:41:17.985Z,4.18
2023-02-06T07:43:48.248Z,4.22
2023-02-06T07:46:17.063Z,4.24
2023-02-06T07:48:46.659Z,4.31
2023-02-06T07:51:15.461Z,4.34
2023-02-06T07:53:43.705Z,4.42
2023-02-06T07:56:13.644Z,4.49
2023-02-06T07:58:42.117Z,4.57
2023-02-06T08:01:10.825Z,4.63
2023-02-06T08:03:39.531Z,4.69
2023-02-06T08:06:14.803Z,4.75
2023-02-06T08:08:43.578Z,4.79
2023-02-06T08:11:15.041Z,4.84
2023-02-06T08:13:43.168Z,4.87
2023-02-06T08:16:13.829Z,4.90
2023-02-06T08:18:42.134Z,4.94
2023-02-06T08:21:14.090Z,4.98
2023-02-06T08:23:42.753Z,5.03
2023-02-06T08:26:13.490Z,5.08
2023-02-06T08:28:42.451Z,5.13
2023-02-06T08:31:12.207Z,5.19
2023-02-06T08:33:40.510Z,5.23
2023-02-06T08:36:09.821Z,5.25
2023-02-06T08:38:39.501Z,5.29
2023-02-06T08:41:17.583Z,5.34
2023-02-06T08:43:46.081Z,5.38
2023-02-06T08:46:14.505Z,5.42
2023-02-06T08:48:42.710Z,5.43
2023-02-06T08:51:12.333Z,5.46
2023-02-06T08:53:42.779Z,5.50
2023-02-06T08:56:13.695Z,5.53
2023-02-06T08:58:42.515Z,5.55
2023-02-06T09:01:13.885Z,5.58
2023-02-06T09:03:42.920Z,5.64
2023-02-06T09:06:12.349Z,5.67
2023-02-06T09:08:46.822Z,5.69
2023-02-06T09:11:16.814Z,5.73
2023-02-06T09:13:49.274Z,5.78
2023-02-06T09:16:20.324Z,5.83
2023-02-06T09:18:49.301Z,5.86
2023-02-06T09:21:19.172Z,5.90
2023-02-06T09:23:50.781Z,5.97
2023-02-06T09:26:21.026Z,6.02
2023-02-06T09:28:49.411Z,6.08
2023-02-06T09:31:17.727Z,6.16
2023-02-06T09:33:46.026Z,6.21
2023-02-06T09:36:17.889Z,6.25
2023-02-06T09:38:49.035Z,6.30
2023-02-06T09:41:20.536Z,6.32
2023-02-06T09:43:51.086Z,6.36
2023-02-06T09:46:23.576Z,6.38
2023-02-06T09:48:52.289Z,6.40
2023-02-06T09:51:30.338Z,6.46
2023-02-06T09:54:09.968Z,6.47
2023-02-06T09:56:45.152Z,6.46
2023-02-06T09:59:23.171Z,6.47
2023-02-06T10:02:02.635Z,6.45
2023-02-06T10:04:45.531Z,6.44
2023-02-06T10:07:29.050Z,6.44
2023-02-06T10:10:04.584Z,6.45
2023-02-06T10:12:40.304Z,6.43
2023-02-06T10:15:14.318Z,6.43
2023-02-06T10:17:51.106Z,6.43
2023-02-06T10:20:23.658Z,6.43
2023-02-06T10:23:02.300Z,6.44
2023-02-06T10:25:34.753Z,6.48
2023-02-06T10:28:09.724Z,6.52
2023-02-06T10:30:58.462Z,6.56
2023-02-06T10:33:32.806Z,6.60
2023-02-06T10:36:07.582Z,6.62
2023-02-06T10:38:52.925Z,6.65
2023-02-06T10:41:33.787Z,6.67
2023-02-06T10:44:06.702Z,6.71
2023-02-06T10:46:46.367Z,6.72
2023-02-06T10:49:27.850Z,6.74
2023-02-06T10:51:59.603Z,6.77
2023-02-06T10:54:33.070Z,6.81
2023-02-06T10:57:03.690Z,6.84
2023-02-06T10:59:35.040Z,6.87
2023-02-06T11:02:18.339Z,6.93
2023-02-06T11:04:57.086Z,6.98
2023-02-06T11:07:29.369Z,7.01
2023-02-06T11:09:58.261Z,7.05
2023-02-06T11:12:33.060Z,7.08
2023-02-06T11:15:07.948Z,7.14
2023-02-06T11:17:36.298Z,7.21
2023-02-06T11:20:20.382Z,7.25
2023-02-06T11:22:52.983Z,7.29
2023-02-06T11:25:29.336Z,7.33
2023-02-06T11:28:01.440Z,7.37
2023-02-06T11:30:36.171Z,7.42
2023-02-06T11:33:08.097Z,7.46
2023-02-06T11:35:40.246Z,7.51
2023-02-06T11:38:20.082Z,7.58
2023-02-06T11:40:57.160Z,7.71
2023-02-06T11:43:28.667Z,7.85
2023-02-06T11:46:15.370Z,8.04
2023-02-06T11:48:45.479Z,8.19
2023-02-06T11:51:17.348Z,8.25
2023-02-06T11:54:00.441Z,8.28
2023-02-06T11:56:29.867Z,8.42
2023-02-06T11:59:08.506Z,8.63
2023-02-06T12:01:44.552Z,8.80
2023-02-06T12:04:24.010Z,8.98
2023-02-06T12:06:59.684Z,9.05
2023-02-06T12:09:28.257Z,9.01
2023-02-06T12:12:01.685Z,9.08
2023-02-06T12:14:38.386Z,9.11
2023-02-06T12:17:16.597Z,9.22
2023-02-06T12:19:49.957Z,9.31
2023-02-06T12:22:23.049Z,9.39
2023-02-06T12:24:54.937Z,9.44
2023-02-06T12:27:29.041Z,9.51
2023-02-06T12:30:07.039Z,9.50
2023-02-06T12:32:40.719Z,9.46
2023-02-06T12:35:17.634Z,9.48
2023-02-06T12:37:52.625Z,9.55
2023-02-06T12:40:36.075Z,9.56
2023-02-06T12:43:08.815Z,9.56
2023-02-06T12:45:50.210Z,9.62
2023-02-06T12:48:23.321Z,9.60
2023-02-06T12:51:08.993Z,9.65
2023-02-06T12:53:42.072Z,9.67
2023-02-06T12:56:22.426Z,9.77
2023-02-06T12:58:58.078Z,9.86
2023-02-06T13:01:40.319Z,9.89
2023-02-06T13:04:16.290Z,9.96
2023-02-06T13:06:52.151Z,10.06
2023-02-06T13:09:26.411Z,10.14
2023-02-06T13:11:55.039Z,10.14
2023-02-06T13:14:25.493Z,10.11
2023-02-06T13:16:58.355Z,10.03
2023-02-06T13:19:46.265Z,9.95
2023-02-06T13:22:38.311Z,9.85
2023-02-06T13:25:52.125Z,9.79
2023-02-06T13:28:44.440Z,9.76
2023-02-06T13:31:25.108Z,9.82
2023-02-06T13:33:58.892Z,9.89
2023-02-06T13:36:43.309Z,10.00
2023-02-06T13:39:17.378Z,10.11
2023-02-06T13:41:46.191Z,10.18
2023-02-06T13:44:20.434Z,10.30
2023-02-06T13:47:19.641Z,10.30
2023-02-06T13:50:25.337Z,10.37
2023-02-06T13:53:26.797Z,10.40
2023-02-06T13:56:04.580Z,10.42
2023-02-06T13:58:45.198Z,10.41
2023-02-06T14:01:20.184Z,10.41
2023-02-06T14:03:51.267Z,10.34
2023-02-06T14:06:46.053Z,10.25
2023-02-06T14:09:34.095Z,10.14
2023-02-06T14:12:30.474Z,10.12
2023-02-06T14:15:10.623Z,10.14
2023-02-06T14:17:51.831Z,10.16
2023-02-06T14:20:34.663Z,10.18
2023-02-06T14:23:14.826Z,10.19
2023-02-06T14:25:57.404Z,10.18
2023-02-06T14:28:34.850Z,10.18
2023-02-06T14:31:14.254Z,10.16
2023-02-06T14:34:01.709Z,10.11
2023-02-06T14:36:44.391Z,10.07
2023-02-06T14:39:50.840Z,9.97
2023-02-06T14:42:23.907Z,9.88
2023-02-06T14:44:57.279Z,9.79
2023-02-06T14:47:29.385Z,9.67
2023-02-06T14:49:59.818Z,9.57
2023-02-06T14:52:30.854Z,9.47
2023-02-06T14:55:00.405Z,9.39
2023-02-06T14:57:31.024Z,9.33
2023-02-06T15:00:00.915Z,9.23
2023-02-06T15:02:32.500Z,9.18
2023-02-06T15:05:02.117Z,9.11
2023-02-06T15:07:33.441Z,9.05
2023-02-06T15:10:07.581Z,8.99
2023-02-06T15:12:37.122Z,8.96
2023-02-06T15:15:17.970Z,8.95
2023-02-06T15:17:58.072Z,8.95
2023-02-06T15:20:29.225Z,8.93
2023-02-06T15:23:15.535Z,8.90
2023-02-06T15:25:58.260Z,8.89
2023-02-06T15:28:30.264Z,8.91
2023-02-06T15:31:00.297Z,8.91
2023-02-06T15:33:30.889Z,8.91
2023-02-06T15:36:00.944Z,8.90
2023-02-06T15:38:32.011Z,8.88
2023-02-06T15:41:06.092Z,8.88
2023-02-06T15:43:35.607Z,8.86
2023-02-06T15:46:05.837Z,8.84
2023-02-06T15:48:37.459Z,8.84
2023-02-06T15:51:20.801Z,8.81
2023-02-06T15:53:50.719Z,8.80
2023-02-06T15:56:26.154Z,8.78
2023-02-06T15:58:59.704Z,8.77
2023-02-06T16:01:30.520Z,8.80
2023-02-06T16:04:00.960Z,8.79
2023-02-06T16:06:29.214Z,8.78
2023-02-06T16:09:00.173Z,8.79
2023-02-06T16:11:50.750Z,8.77
2023-02-06T16:14:24.551Z,8.74
2023-02-06T16:17:01.589Z,8.74
2023-02-06T16:19:48.334Z,8.72
2023-02-06T16:22:25.221Z,8.72
2023-02-06T16:24:55.997Z,8.71
2023-02-06T16:27:27.171Z,8.68
2023-02-06T16:29:57.954Z,8.66
2023-02-06T16:32:29.548Z,8.67
2023-02-06T16:34:57.838Z,8.67
2023-02-06T16:37:27.541Z,8.67
2023-02-06T16:39:56.228Z,8.66
2023-02-06T16:42:27.943Z,8.65
2023-02-06T16:45:01.137Z,8.64
2023-02-06T16:47:29.739Z,8.64
2023-02-06T16:49:57.904Z,8.64
2023-02-06T16:52:27.979Z,8.61
2023-02-06T16:54:59.045Z,8.58
2023-02-06T16:57:32.992Z,8.58
2023-02-06T17:00:01.207Z,8.55
2023-02-06T17:02:29.543Z,8.52
2023-02-06T17:04:57.861Z,8.49
2023-02-06T17:07:28.036Z,8.47
2023-02-06T17:09:59.722Z,8.41
2023-02-06T17:12:29.864Z,8.34
2023-02-06T17:14:58.540Z,8.30
2023-02-06T17:17:26.758Z,8.29
2023-02-06T17:19:55.109Z,8.24
2023-02-06T17:22:27.643Z,8.21
2023-02-06T17:24:55.846Z,8.14
2023-02-06T17:27:24.286Z,8.11
2023-02-06T17:29:53.941Z,8.05
2023-02-06T17:32:23.060Z,8.02
2023-02-06T17:34:54.317Z,7.98
2023-02-06T17:37:22.766Z,7.91
2023-02-06T17:39:52.223Z,7.88
2023-02-06T17:42:22.012Z,7.85
2023-02-06T17:44:50.759Z,7.80
2023-02-06T17:47:20.345Z,7.75
2023-02-06T17:49:48.574Z,7.72
2023-02-06T17:52:16.757Z,7.70
2023-02-06T17:54:45.049Z,7.67
2023-02-06T17:57:14.529Z,7.65
2023-02-06T17:59:42.781Z,7.62
2023-02-06T18:02:13.454Z,7.60
2023-02-06T18:04:43.083Z,7.59
2023-02-06T18:07:11.283Z,7.57
2023-02-06T18:09:41.761Z,7.56
2023-02-06T18:12:10.400Z,7.55
2023-02-06T18:14:39.708Z,7.55
2023-02-06T18:17:07.967Z,7.54
2023-02-06T18:19:42.316Z,7.53
2023-02-06T18:22:14.525Z,7.51
2023-02-06T18:24:43.684Z,7.49
2023-02-06T18:27:12.663Z,7.49
2023-02-06T18:29:49.704Z,7.45
2023-02-06T18:32:19.711Z,7.40
2023-02-06T18:34:47.967Z,7.39
2023-02-06T18:37:17.935Z,7.37
2023-02-06T18:39:46.077Z,7.34
2023-02-06T18:42:31.942Z,7.33
2023-02-06T18:45:03.213Z,7.33
2023-02-06T18:47:32.119Z,7.33
2023-02-06T18:50:00.577Z,7.31
2023-02-06T18:52:30.581Z,7.31
2023-02-06T18:54:58.770Z,7.30
2023-02-06T18:57:26.957Z,7.27
2023-02-06T18:59:55.165Z,7.26
2023-02-06T19:02:23.601Z,7.24
2023-02-06T19:04:51.889Z,7.21
2023-02-06T19:07:20.130Z,7.18
2023-02-06T19:09:49.690Z,7.15
2023-02-06T19:12:17.928Z,7.12
2023-02-06T19:14:46.171Z,7.08
2023-02-06T19:17:14.365Z,7.05
2023-02-06T19:19:42.514Z,7.03
2023-02-06T19:22:10.774Z,6.99
2023-02-06T19:24:38.911Z,6.95
2023-02-06T19:27:08.560Z,6.91
2023-02-06T19:29:36.822Z,6.88
2023-02-06T19:32:05.833Z,6.86
2023-02-06T19:34:36.323Z,6.85
2023-02-06T19:37:04.982Z,6.84
2023-02-06T19:39:34.479Z,6.82
2023-02-06T19:42:05.602Z,6.80
2023-02-06T19:44:36.384Z,6.78
2023-02-06T19:47:05.226Z,6.77
2023-02-06T19:49:33.470Z,6.74
2023-02-06T19:52:01.954Z,6.72
2023-02-06T19:54:30.279Z,6.72
2023-02-06T19:57:00.695Z,6.71
2023-02-06T19:59:30.247Z,6.72
2023-02-06T20:02:01.517Z,6.72
2023-02-06T20:04:32.763Z,6.71
2023-02-06T20:07:01.108Z,6.71
2023-02-06T20:09:30.653Z,6.71
2023-02-06T20:11:59.230Z,6.72
2023-02-06T20:14:28.034Z,6.73
2023-02-06T20:16:56.482Z,6.71
2023-02-06T20:19:28.998Z,6.72
2023-02-06T20:21:59.238Z,6.71
2023-02-06T20:24:33.132Z,6.69
2023-02-06T20:27:05.964Z,6.71
2023-02-06T20:29:36.592Z,6.70
2023-02-06T20:32:05.678Z,6.68
2023-02-06T20:34:36.497Z,6.71
2023-02-06T20:37:04.712Z,6.71
2023-02-06T20:39:33.170Z,6.71
2023-02-06T20:42:01.418Z,6.72
2023-02-06T20:44:29.791Z,6.72
2023-02-06T20:46:57.939Z,6.72
2023-02-06T20:49:31.163Z,6.72
2023-02-06T20:52:01.566Z,6.71
2023-02-06T20:54:30.887Z,6.71
2023-02-06T20:57:00.488Z,6.70
2023-02-06T20:59:29.295Z,6.70
2023-02-06T21:01:57.540Z,6.68
2023-02-06T21:04:25.922Z,6.66
2023-02-06T21:06:54.097Z,6.65
2023-02-06T21:09:23.840Z,6.63
2023-02-06T21:11:52.125Z,6.63
2023-02-06T21:14:20.914Z,6.64
2023-02-06T21:16:49.763Z,6.61
2023-02-06T21:19:19.950Z,6.60
2023-02-06T21:21:48.470Z,6.59
2023-02-06T21:24:17.731Z,6.60
2023-02-06T21:26:47.682Z,6.59
2023-02-06T21:29:17.049Z,6.60
2023-02-06T21:31:46.371Z,6.60
2023-02-06T21:34:17.025Z,6.58
2023-02-06T21:36:46.354Z,6.57
2023-02-06T21:39:17.502Z,6.54
2023-02-06T21:41:47.897Z,6.51
2023-02-06T21:44:16.146Z,6.49
2023-02-06T21:46:44.269Z,6.45
2023-02-06T21:49:12.473Z,6.42
2023-02-06T21:51:40.708Z,6.40
2023-02-06T21:54:09.379Z,6.41
2023-02-06T21:56:39.241Z,6.40
2023-02-06T21:59:09.998Z,6.39
2023-02-06T22:01:40.665Z,6.41
2023-02-06T22:04:10.322Z,6.43
2023-02-06T22:06:39.143Z,6.44
2023-02-06T22:09:12.762Z,6.44
2023-02-06T22:11:41.443Z,6.43
2023-02-06T22:14:14.673Z,6.43
2023-02-06T22:16:42.932Z,6.44
2023-02-06T22:19:12.268Z,6.45
2023-02-06T22:21:40.697Z,6.45
2023-02-06T22:24:10.444Z,6.47
2023-02-06T22:26:39.747Z,6.49
2023-02-06T22:29:09.325Z,6.56
2023-02-06T22:31:40.554Z,6.56
2023-02-06T22:34:11.952Z,6.51
2023-02-06T22:36:39.944Z,6.54
2023-02-06T22:39:10.155Z,6.52
2023-02-06T22:41:40.616Z,6.52
2023-02-06T22:44:09.428Z,6.50
2023-02-06T22:46:40.354Z,6.51
2023-02-06T22:49:14.831Z,6.49
2023-02-06T22:51:44.144Z,6.49
2023-02-06T22:54:13.038Z,6.50
2023-02-06T22:56:42.481Z,6.53
2023-02-06T22:59:12.782Z,6.56
2023-02-06T23:01:44.719Z,6.57
2023-02-06T23:04:15.334Z,6.57
2023-02-06T23:06:44.347Z,6.58
2023-02-06T23:09:16.871Z,6.59
2023-02-06T23:11:46.170Z,6.59
2023-02-06T23:14:15.739Z,6.59
2023-02-06T23:16:46.016Z,6.61
2023-02-06T23:19:15.828Z,6.64
2023-02-06T23:21:45.892Z,6.63
2023-02-06T23:24:14.556Z,6.62
2023-02-06T23:26:43.947Z,6.65
2023-02-06T23:29:15.934Z,6.65
2023-02-06T23:31:46.920Z,6.65
2023-02-06T23:34:16.334Z,6.67
2023-02-06T23:36:44.759Z,6.68
2023-02-06T23:39:12.957Z,6.69
2023-02-06T23:41:41.342Z,6.70
2023-02-06T23:44:10.181Z,6.72
2023-02-06T23:46:39.857Z,6.73
2023-02-06T23:49:10.254Z,6.74
2023-02-06T23:51:39.234Z,6.75
2023-02-06T23:54:08.865Z,6.78
2023-02-06T23:56:38.280Z,6.79
2023-02-06T23:59:07.450Z,6.79
